createdAt,value
2018-11-23T00:00:57.782Z,30.70
2018-11-23T00:03:24.632Z,30.50
2018-11-23T00:05:51.444Z,30.60
2018-11-23T00:08:18.295Z,30.60
2018-11-23T00:10:45.108Z,30.50
2018-11-23T00:13:12.009Z,30.50
2018-11-23T00:15:38.841Z,30.50
2018-11-23T00:18:05.667Z,30.50
2018-11-23T00:20:32.518Z,30.50
2018-11-23T00:22:59.382Z,30.50
2018-11-23T00:25:26.213Z,30.50
2018-11-23T00:27:53.052Z,30.50
2018-11-23T00:30:19.867Z,30.40
2018-11-23T00:32:46.746Z,30.60
2018-11-23T00:35:13.560Z,30.50
2018-11-23T00:37:40.407Z,30.50
2018-11-23T00:40:07.235Z,30.40
2018-11-23T00:42:34.125Z,30.60
2018-11-23T00:45:01.028Z,30.40
2018-11-23T00:47:28.924Z,30.50
2018-11-23T00:49:55.747Z,30.30
2018-11-23T00:52:22.712Z,31.00
2018-11-23T00:54:49.531Z,30.50
2018-11-23T00:57:16.358Z,30.30
2018-11-23T00:59:43.180Z,30.30
2018-11-23T01:02:10.341Z,30.50
2018-11-23T01:04:37.147Z,30.30
2018-11-23T01:07:03.978Z,30.50
2018-11-23T01:09:30.825Z,30.40
2018-11-23T01:11:57.660Z,30.30
2018-11-23T01:14:24.478Z,30.50
2018-11-23T01:16:51.312Z,31.00
2018-11-23T01:19:18.136Z,30.40
2018-11-23T01:21:45.034Z,30.40
2018-11-23T01:24:11.867Z,30.40
2018-11-23T01:26:38.688Z,30.40
2018-11-23T01:29:05.513Z,30.20
2018-11-23T01:31:32.347Z,30.20
2018-11-23T01:33:59.170Z,30.20
2018-11-23T01:36:26.008Z,30.20
2018-11-23T01:38:52.834Z,30.40
2018-11-23T01:41:19.677Z,30.40
2018-11-23T01:43:46.494Z,30.20
2018-11-23T01:46:13.320Z,30.40
2018-11-23T01:48:40.142Z,30.20
2018-11-23T01:51:06.972Z,30.80
2018-11-23T01:53:33.991Z,30.10
2018-11-23T01:56:00.834Z,30.10
2018-11-23T01:58:27.641Z,30.10
2018-11-23T02:00:54.468Z,30.00
2018-11-23T02:03:21.355Z,30.10
2018-11-23T02:05:48.181Z,30.20
2018-11-23T02:08:15.016Z,30.00
2018-11-23T02:10:41.844Z,30.00
2018-11-23T02:13:08.756Z,30.10
2018-11-23T02:15:35.574Z,30.20
2018-11-23T02:18:02.409Z,30.10
2018-11-23T02:20:29.242Z,30.00
2018-11-23T02:22:56.113Z,30.10
2018-11-23T02:25:22.958Z,30.10
2018-11-23T02:27:49.799Z,30.10
2018-11-23T02:30:16.658Z,30.00
2018-11-23T02:32:43.488Z,30.20
2018-11-23T02:35:10.316Z,30.00
2018-11-23T02:37:37.150Z,30.10
2018-11-23T02:40:03.974Z,30.10
2018-11-23T02:42:30.915Z,30.10
2018-11-23T02:44:57.728Z,30.00
2018-11-23T02:47:24.548Z,30.10
2018-11-23T02:49:51.375Z,30.00
2018-11-23T02:52:18.220Z,30.00
2018-11-23T02:54:45.052Z,30.00
2018-11-23T02:57:11.877Z,30.10
2018-11-23T02:59:38.695Z,30.00
2018-11-23T03:02:05.590Z,30.00
2018-11-23T03:04:32.407Z,30.00
2018-11-23T03:06:59.483Z,30.00
2018-11-23T03:09:26.306Z,30.00
2018-11-23T03:11:53.169Z,30.00
2018-11-23T03:14:19.997Z,30.00
2018-11-23T03:16:46.835Z,30.00
2018-11-23T03:19:13.659Z,30.00
2018-11-23T03:21:40.545Z,29.80
2018-11-23T03:24:07.444Z,30.00
2018-11-23T03:26:34.257Z,29.90
2018-11-23T03:29:01.081Z,30.00
2018-11-23T03:31:27.910Z,29.90
2018-11-23T03:33:54.736Z,30.00
2018-11-23T03:36:21.560Z,30.00
2018-11-23T03:38:48.391Z,29.90
2018-11-23T03:41:15.244Z,29.90
2018-11-23T03:43:42.074Z,29.80
2018-11-23T03:46:08.971Z,29.90
2018-11-23T03:48:35.808Z,30.00
2018-11-23T03:51:02.632Z,30.40
2018-11-23T03:53:29.507Z,29.90
2018-11-23T03:55:56.322Z,29.90
2018-11-23T03:58:23.150Z,29.90
2018-11-23T04:00:49.986Z,29.90
2018-11-23T04:03:16.871Z,30.40
2018-11-23T04:05:43.679Z,30.00
2018-11-23T04:08:10.503Z,29.90
2018-11-23T04:10:37.338Z,29.90
2018-11-23T04:13:04.234Z,30.00
2018-11-23T04:15:31.056Z,30.00
2018-11-23T04:17:57.883Z,29.90
2018-11-23T04:20:24.707Z,29.90
2018-11-23T04:22:51.604Z,29.90
2018-11-23T04:25:18.432Z,30.00
2018-11-23T04:27:45.275Z,30.00
2018-11-23T04:30:12.102Z,30.00
2018-11-23T04:32:38.998Z,30.00
2018-11-23T04:35:05.826Z,30.00
2018-11-23T04:37:32.653Z,30.10
2018-11-23T04:39:59.497Z,30.10
2018-11-23T04:42:26.362Z,30.10
2018-11-23T04:44:53.183Z,30.10
2018-11-23T04:47:20.014Z,30.10
2018-11-23T04:49:46.848Z,30.00
2018-11-23T04:52:13.720Z,29.80
2018-11-23T04:54:40.557Z,30.00
2018-11-23T04:57:07.397Z,30.00
2018-11-23T04:59:34.243Z,29.90
2018-11-23T05:02:01.093Z,29.90
2018-11-23T05:04:27.926Z,30.00
2018-11-23T05:06:54.763Z,29.90
2018-11-23T05:09:21.604Z,29.90
2018-11-23T05:11:48.462Z,29.90
2018-11-23T05:14:15.287Z,29.90
2018-11-23T05:16:42.126Z,29.90
2018-11-23T05:19:08.943Z,30.00
2018-11-23T05:21:35.776Z,30.00
2018-11-23T05:24:02.599Z,30.00
2018-11-23T05:26:29.433Z,30.10
2018-11-23T05:28:56.252Z,30.40
2018-11-23T05:31:23.078Z,29.80
2018-11-23T05:33:49.905Z,30.00
2018-11-23T05:36:16.907Z,30.00
2018-11-23T05:38:43.734Z,30.00
2018-11-23T05:41:10.565Z,30.00
2018-11-23T05:43:37.446Z,30.00
2018-11-23T05:46:04.290Z,29.90
2018-11-23T05:48:31.133Z,29.90
2018-11-23T05:50:57.947Z,30.00
2018-11-23T05:53:24.794Z,29.90
2018-11-23T05:55:51.616Z,29.90
2018-11-23T05:58:18.437Z,29.90
2018-11-23T06:00:45.279Z,30.00
2018-11-23T06:03:12.167Z,29.90
2018-11-23T06:05:39.007Z,29.90
2018-11-23T06:08:05.821Z,29.90
2018-11-23T06:10:32.688Z,29.90
2018-11-23T06:12:59.551Z,29.90
2018-11-23T06:15:26.378Z,29.90
2018-11-23T06:17:53.207Z,29.80
2018-11-23T06:20:20.035Z,29.80
2018-11-23T06:22:46.942Z,29.90
2018-11-23T06:25:13.759Z,29.90
2018-11-23T06:27:40.569Z,29.90
2018-11-23T06:30:07.402Z,29.80
2018-11-23T06:32:34.300Z,29.80
2018-11-23T06:35:01.122Z,29.70
2018-11-23T06:37:27.952Z,29.70
2018-11-23T06:39:54.779Z,29.80
2018-11-23T06:42:21.673Z,29.70
2018-11-23T06:44:48.493Z,29.70
2018-11-23T06:47:15.682Z,29.70
2018-11-23T06:49:42.565Z,29.70
2018-11-23T06:52:09.439Z,29.60
2018-11-23T06:54:36.267Z,29.70
2018-11-23T06:57:03.100Z,29.60
2018-11-23T06:59:29.928Z,29.70
2018-11-23T07:01:56.805Z,29.70
2018-11-23T07:04:23.652Z,29.70
2018-11-23T07:06:50.470Z,29.60
2018-11-23T07:09:17.328Z,29.60
2018-11-23T07:11:44.184Z,29.60
2018-11-23T07:14:11.010Z,29.60
2018-11-23T07:16:37.867Z,29.60
2018-11-23T07:19:04.704Z,29.60
2018-11-23T07:21:31.534Z,30.00
2018-11-23T07:23:58.412Z,29.50
2018-11-23T07:26:25.238Z,29.60
2018-11-23T07:28:52.141Z,29.40
2018-11-23T07:31:18.959Z,29.50
2018-11-23T07:33:45.783Z,29.50
2018-11-23T07:36:12.604Z,29.50
2018-11-23T07:38:39.451Z,29.40
2018-11-23T07:41:06.291Z,29.40
2018-11-23T07:43:33.147Z,29.40
2018-11-23T07:45:59.991Z,29.60
2018-11-23T07:48:26.811Z,29.40
2018-11-23T07:50:53.648Z,29.50
2018-11-23T07:53:20.519Z,29.50
2018-11-23T07:55:47.341Z,29.40
2018-11-23T07:58:14.172Z,29.40
2018-11-23T08:00:41.005Z,29.50
2018-11-23T08:03:07.884Z,29.40
2018-11-23T08:05:39.782Z,29.40
2018-11-23T08:08:06.665Z,29.40
2018-11-23T08:10:33.489Z,29.30
2018-11-23T08:13:00.377Z,29.40
2018-11-23T08:15:27.201Z,29.30
2018-11-23T08:17:54.024Z,29.30
2018-11-23T08:20:20.853Z,29.40
2018-11-23T08:22:47.743Z,29.40
2018-11-23T08:25:14.565Z,29.40
2018-11-23T08:27:41.391Z,29.40
2018-11-23T08:30:08.222Z,29.30
2018-11-23T08:32:35.173Z,29.40
2018-11-23T08:35:02.010Z,29.40
2018-11-23T08:37:28.842Z,29.40
2018-11-23T08:39:55.687Z,29.30
2018-11-23T08:42:22.704Z,29.40
2018-11-23T08:44:49.532Z,29.20
2018-11-23T08:47:16.559Z,29.40
2018-11-23T08:49:43.386Z,29.30
2018-11-23T08:52:10.272Z,29.40
2018-11-23T08:54:37.100Z,29.40
2018-11-23T08:57:03.932Z,29.30
2018-11-23T08:59:30.760Z,29.30
2018-11-23T09:01:57.639Z,29.30
2018-11-23T09:04:24.462Z,29.40
2018-11-23T09:06:51.304Z,29.40
2018-11-23T09:09:18.144Z,29.40
2018-11-23T09:11:45.010Z,29.60
2018-11-23T09:14:11.862Z,29.50
2018-11-23T09:16:38.705Z,29.50
2018-11-23T09:19:05.568Z,29.60
2018-11-23T09:21:32.403Z,29.50
2018-11-23T09:23:59.284Z,29.60
2018-11-23T09:26:26.211Z,29.40
2018-11-23T09:28:53.057Z,29.50
2018-11-23T09:31:19.888Z,29.60
2018-11-23T09:33:46.719Z,29.40
2018-11-23T09:36:13.552Z,29.40
2018-11-23T09:38:40.388Z,29.60
2018-11-23T09:41:07.207Z,29.60
2018-11-23T09:43:34.196Z,29.70
2018-11-23T09:46:01.120Z,29.70
2018-11-23T09:48:27.952Z,29.60
2018-11-23T09:50:54.779Z,29.60
2018-11-23T09:53:21.751Z,29.60
2018-11-23T09:55:48.593Z,29.70
2018-11-23T09:58:15.433Z,29.80
2018-11-23T10:00:42.248Z,29.90
2018-11-23T10:03:09.289Z,29.90
2018-11-23T10:05:36.207Z,29.90
2018-11-23T10:08:02.952Z,30.00
2018-11-23T10:10:30.116Z,29.90
2018-11-23T10:12:57.106Z,29.90
2018-11-23T10:15:23.944Z,30.00
2018-11-23T10:17:50.773Z,30.00
2018-11-23T10:20:17.598Z,30.00
2018-11-23T10:22:44.490Z,30.00
2018-11-23T10:25:11.471Z,30.00
2018-11-23T10:27:38.419Z,30.10
2018-11-23T10:30:05.243Z,30.00
2018-11-23T10:32:32.261Z,30.00
2018-11-23T10:34:59.098Z,30.00
2018-11-23T10:37:26.024Z,30.00
2018-11-23T10:39:52.849Z,30.00
2018-11-23T10:42:19.897Z,30.00
2018-11-23T10:44:46.887Z,30.00
2018-11-23T10:47:14.469Z,30.00
2018-11-23T10:49:41.269Z,30.10
2018-11-23T10:52:08.326Z,30.10
2018-11-23T10:54:35.165Z,30.10
2018-11-23T10:57:02.153Z,30.10
2018-11-23T10:59:28.906Z,30.10
2018-11-23T11:01:56.638Z,30.30
2018-11-23T11:04:23.455Z,30.10
2018-11-23T11:06:50.292Z,30.10
2018-11-23T11:09:17.269Z,30.10
2018-11-23T11:11:44.222Z,30.10
2018-11-23T11:14:11.053Z,30.20
2018-11-23T11:16:37.902Z,30.20
2018-11-23T11:19:04.868Z,30.10
2018-11-23T11:21:31.683Z,30.20
2018-11-23T11:23:58.556Z,30.20
2018-11-23T11:26:25.392Z,30.20
2018-11-23T11:28:52.348Z,30.10
2018-11-23T11:31:19.152Z,30.20
2018-11-23T11:33:45.979Z,30.40
2018-11-23T11:36:12.822Z,30.40
2018-11-23T11:38:39.780Z,30.30
2018-11-23T11:41:06.610Z,30.40
2018-11-23T11:43:33.741Z,30.40
2018-11-23T11:46:00.576Z,30.50
2018-11-23T11:48:27.459Z,30.50
2018-11-23T11:50:54.324Z,30.70
2018-11-23T11:53:21.396Z,30.60
2018-11-23T11:55:48.441Z,30.70
2018-11-23T11:58:15.300Z,30.60
2018-11-23T12:00:42.138Z,30.70
2018-11-23T12:03:09.191Z,30.80
2018-11-23T12:05:36.046Z,30.70
2018-11-23T12:08:02.898Z,30.70
2018-11-23T12:10:29.798Z,30.80
2018-11-23T12:12:56.737Z,30.80
2018-11-23T12:15:24.578Z,30.70
2018-11-23T12:17:51.421Z,30.60
2018-11-23T12:20:18.263Z,30.50
2018-11-23T12:22:45.130Z,30.60
2018-11-23T12:25:12.814Z,30.60
2018-11-23T12:27:39.816Z,30.60
2018-11-23T12:30:07.104Z,30.60
2018-11-23T12:32:34.372Z,30.60
2018-11-23T12:35:01.247Z,30.60
2018-11-23T12:37:28.131Z,30.60
2018-11-23T12:39:55.300Z,30.50
2018-11-23T12:42:22.346Z,30.60
2018-11-23T12:44:49.205Z,30.50
2018-11-23T12:47:16.291Z,30.50
2018-11-23T12:49:43.180Z,30.50
2018-11-23T12:52:10.092Z,30.50
2018-11-23T12:54:36.948Z,30.60
2018-11-23T12:57:03.770Z,30.60
2018-11-23T12:59:30.672Z,30.50
2018-11-23T13:01:57.688Z,30.50
2018-11-23T13:04:24.543Z,30.50
2018-11-23T13:06:51.460Z,30.50
2018-11-23T13:09:18.299Z,30.50
2018-11-23T13:11:45.247Z,30.50
2018-11-23T13:14:12.079Z,30.60
2018-11-23T13:16:38.911Z,30.50
2018-11-23T13:19:05.860Z,30.60
2018-11-23T13:21:32.698Z,30.60
2018-11-23T13:23:59.539Z,30.60
2018-11-23T13:26:26.402Z,30.50
2018-11-23T13:28:53.225Z,30.50
2018-11-23T13:31:20.121Z,30.50
2018-11-23T13:33:46.954Z,30.40
2018-11-23T13:36:13.878Z,30.40
2018-11-23T13:38:40.702Z,30.50
2018-11-23T13:41:07.560Z,30.40
2018-11-23T13:43:34.437Z,30.50
2018-11-23T13:46:01.259Z,30.50
2018-11-23T13:48:28.095Z,30.50
2018-11-23T13:50:54.915Z,30.60
2018-11-23T13:53:21.775Z,30.60
2018-11-23T13:55:48.708Z,30.60
2018-11-23T13:58:15.552Z,30.60
2018-11-23T14:00:42.380Z,30.50
2018-11-23T14:03:09.383Z,30.50
2018-11-23T14:05:36.201Z,30.70
2018-11-23T14:08:03.019Z,30.60
2018-11-23T14:10:30.491Z,30.60
2018-11-23T14:12:57.335Z,30.70
2018-11-23T14:15:24.152Z,30.70
2018-11-23T14:17:50.994Z,30.60
2018-11-23T14:20:17.865Z,30.30
2018-11-23T14:22:44.712Z,30.50
2018-11-23T14:25:12.350Z,30.60
2018-11-23T14:27:39.211Z,30.60
2018-11-23T14:30:06.047Z,30.50
2018-11-23T14:32:32.914Z,30.60
2018-11-23T14:34:59.751Z,30.60
2018-11-23T14:37:26.575Z,30.60
2018-11-23T14:39:53.408Z,30.70
2018-11-23T14:42:20.276Z,30.70
2018-11-23T14:44:47.147Z,30.70
2018-11-23T14:47:14.499Z,30.60
2018-11-23T14:49:41.382Z,30.60
2018-11-23T14:52:08.259Z,30.70
2018-11-23T14:54:35.080Z,30.60
2018-11-23T14:57:01.923Z,30.70
2018-11-23T14:59:28.751Z,30.70
2018-11-23T15:01:55.753Z,30.70
2018-11-23T15:04:22.580Z,30.70
2018-11-23T15:06:49.413Z,30.60
2018-11-23T15:09:16.308Z,30.70
2018-11-23T15:11:43.308Z,30.70
2018-11-23T15:14:10.131Z,31.20
2018-11-23T15:16:36.970Z,30.60
2018-11-23T15:19:04.805Z,30.60
2018-11-23T15:21:31.666Z,30.60
2018-11-23T15:24:00.833Z,30.60
2018-11-23T15:26:25.368Z,30.60
2018-11-23T15:28:52.416Z,30.70
2018-11-23T15:31:19.265Z,30.60
2018-11-23T15:33:46.099Z,30.60
2018-11-23T15:36:12.943Z,30.60
2018-11-23T15:38:40.473Z,30.60
2018-11-23T15:41:07.297Z,30.60
2018-11-23T15:43:34.300Z,30.60
2018-11-23T15:46:01.136Z,30.60
2018-11-23T15:48:27.969Z,30.60
2018-11-23T15:50:54.793Z,30.00
2018-11-23T15:53:21.692Z,30.70
2018-11-23T15:55:48.524Z,30.70
2018-11-23T15:58:15.353Z,30.70
2018-11-23T16:00:42.478Z,30.60
2018-11-23T16:03:09.465Z,30.70
2018-11-23T16:05:36.281Z,30.70
2018-11-23T16:08:03.144Z,30.60
2018-11-23T16:10:30.440Z,30.60
2018-11-23T16:12:57.478Z,30.60
2018-11-23T16:15:24.939Z,30.60
2018-11-23T16:17:51.769Z,30.60
2018-11-23T16:20:18.585Z,30.60
2018-11-23T16:22:45.459Z,30.60
2018-11-23T16:25:12.285Z,30.60
2018-11-23T16:27:39.121Z,30.60
2018-11-23T16:30:07.289Z,30.60
2018-11-23T16:32:34.247Z,30.60
2018-11-23T16:35:01.095Z,30.70
2018-11-23T16:37:29.406Z,30.70
2018-11-23T16:39:56.218Z,30.70
2018-11-23T16:42:23.255Z,30.60
2018-11-23T16:44:50.101Z,30.60
2018-11-23T16:47:18.286Z,30.60
2018-11-23T16:49:45.094Z,30.60
2018-11-23T16:52:12.047Z,30.60
2018-11-23T16:54:38.869Z,30.60
2018-11-23T16:57:05.708Z,30.60
2018-11-23T16:59:32.541Z,30.60
2018-11-23T17:01:59.427Z,30.60
2018-11-23T17:04:26.260Z,30.60
2018-11-23T17:06:54.283Z,30.60
2018-11-23T17:09:21.085Z,30.60
2018-11-23T17:11:48.019Z,30.60
2018-11-23T17:14:14.848Z,30.60
2018-11-23T17:16:41.685Z,30.60
2018-11-23T17:19:08.533Z,30.60
2018-11-23T17:21:35.397Z,30.60
2018-11-23T17:24:02.240Z,30.60
2018-11-23T17:26:29.116Z,30.50
2018-11-23T17:28:55.957Z,30.50
2018-11-23T17:31:22.793Z,30.60
2018-11-23T17:33:49.625Z,30.60
2018-11-23T17:36:16.473Z,30.60
2018-11-23T17:38:47.653Z,30.60
2018-11-23T17:41:10.153Z,30.60
2018-11-23T17:43:36.977Z,30.60
2018-11-23T17:46:03.853Z,30.60
2018-11-23T17:48:30.666Z,30.50
2018-11-23T17:50:57.496Z,30.60
2018-11-23T17:53:24.354Z,30.60
2018-11-23T17:55:52.924Z,30.90
2018-11-23T17:58:19.732Z,30.70
2018-11-23T18:00:48.009Z,30.70
2018-11-23T18:03:15.017Z,30.70
2018-11-23T18:05:43.353Z,30.70
2018-11-23T18:08:10.207Z,30.70
2018-11-23T18:10:38.164Z,30.70
2018-11-23T18:13:05.093Z,30.70
2018-11-23T18:15:31.886Z,30.60
2018-11-23T18:17:58.740Z,30.70
2018-11-23T18:20:25.947Z,30.80
2018-11-23T18:22:52.829Z,30.80
2018-11-23T18:25:20.161Z,30.80
2018-11-23T18:27:46.983Z,30.90
2018-11-23T18:30:14.310Z,30.90
2018-11-23T18:32:41.229Z,30.80
2018-11-23T18:35:08.060Z,30.80
2018-11-23T18:37:34.905Z,30.70
2018-11-23T18:40:01.738Z,30.60
2018-11-23T18:42:28.584Z,30.90
2018-11-23T18:44:55.414Z,30.60
2018-11-23T18:47:22.997Z,30.70
2018-11-23T18:49:49.786Z,30.50
2018-11-23T18:52:16.787Z,30.40
2018-11-23T18:54:43.621Z,30.30
2018-11-23T18:57:10.453Z,30.30
2018-11-23T18:59:37.291Z,30.30
2018-11-23T19:02:05.520Z,30.80
2018-11-23T19:04:32.398Z,30.70
2018-11-23T19:06:59.524Z,30.60
2018-11-23T19:09:26.359Z,30.10
2018-11-23T19:11:53.442Z,30.00
2018-11-23T19:14:20.238Z,30.00
2018-11-23T19:16:47.071Z,30.00
2018-11-23T19:19:13.911Z,30.00
2018-11-23T19:21:40.941Z,30.10
2018-11-23T19:24:07.775Z,30.20
2018-11-23T19:26:34.618Z,30.20
2018-11-23T19:29:01.551Z,30.30
2018-11-23T19:31:28.375Z,30.50
2018-11-23T19:33:59.482Z,30.60
2018-11-23T19:36:25.713Z,30.70
2018-11-23T19:38:58.023Z,30.80
2018-11-23T19:41:24.843Z,30.80
2018-11-23T19:43:53.069Z,30.90
2018-11-23T19:46:27.371Z,30.80
2018-11-23T19:48:54.232Z,30.80
2018-11-23T19:51:21.083Z,30.90
2018-11-23T19:53:47.905Z,31.60
2018-11-23T19:56:29.453Z,30.90
2018-11-23T19:58:57.540Z,30.90
2018-11-23T20:01:24.678Z,30.90
2018-11-23T20:03:51.540Z,30.90
2018-11-23T20:06:18.562Z,30.90
2018-11-23T20:08:45.519Z,30.90
2018-11-23T20:11:13.097Z,31.00
2018-11-23T20:13:40.111Z,30.90
2018-11-23T20:16:07.020Z,30.90
2018-11-23T20:18:33.840Z,30.90
2018-11-23T20:21:01.658Z,30.70
2018-11-23T20:23:28.690Z,30.90
2018-11-23T20:25:57.329Z,30.90
2018-11-23T20:28:24.093Z,30.90
2018-11-23T20:30:50.920Z,30.90
2018-11-23T20:33:17.909Z,30.90
2018-11-23T20:35:46.108Z,30.90
2018-11-23T20:38:12.930Z,30.90
2018-11-23T20:40:39.796Z,30.90
2018-11-23T20:43:06.729Z,30.90
2018-11-23T20:45:33.551Z,31.00
2018-11-23T20:48:00.383Z,30.90
2018-11-23T20:50:38.849Z,30.90
2018-11-23T20:53:10.367Z,30.90
2018-11-23T20:55:42.407Z,30.90
2018-11-23T20:58:09.323Z,31.10
2018-11-23T21:00:36.957Z,30.90
2018-11-23T21:03:03.972Z,30.90
2018-11-23T21:05:30.869Z,30.80
2018-11-23T21:07:57.700Z,30.80
2018-11-23T21:10:24.527Z,30.80
2018-11-23T21:12:51.580Z,30.80
2018-11-23T21:15:18.448Z,30.80
2018-11-23T21:17:58.050Z,30.80
2018-11-23T21:20:35.625Z,30.80
2018-11-23T21:23:06.959Z,30.70
2018-11-23T21:25:33.779Z,30.70
2018-11-23T21:28:00.614Z,30.70
2018-11-23T21:30:27.426Z,30.60
2018-11-23T21:32:54.467Z,30.60
2018-11-23T21:35:21.285Z,30.60
2018-11-23T21:37:48.106Z,30.60
2018-11-23T21:40:14.937Z,30.50
2018-11-23T21:42:41.919Z,31.20
2018-11-23T21:45:08.775Z,30.50
2018-11-23T21:47:35.594Z,30.50
2018-11-23T21:50:02.433Z,30.60
2018-11-23T21:52:29.297Z,30.50
2018-11-23T21:54:56.125Z,30.60
2018-11-23T21:57:22.941Z,30.50
2018-11-23T21:59:49.755Z,30.50
2018-11-23T22:02:16.672Z,30.60
2018-11-23T22:04:43.498Z,30.60
2018-11-23T22:07:10.336Z,30.60
2018-11-23T22:09:37.182Z,31.20
2018-11-23T22:12:04.678Z,30.30
2018-11-23T22:14:31.502Z,30.50
2018-11-23T22:16:58.319Z,30.60
2018-11-23T22:19:25.158Z,30.50
2018-11-23T22:21:52.018Z,30.50
2018-11-23T22:24:18.862Z,30.50
2018-11-23T22:26:45.686Z,30.60
2018-11-23T22:29:12.497Z,30.60
2018-11-23T22:31:39.394Z,30.60
2018-11-23T22:34:06.230Z,30.60
2018-11-23T22:36:33.051Z,30.70
2018-11-23T22:38:59.875Z,30.60
2018-11-23T22:41:26.704Z,30.60
2018-11-23T22:43:53.551Z,30.60
2018-11-23T22:46:20.383Z,30.50
2018-11-23T22:48:47.193Z,30.50
2018-11-23T22:51:14.036Z,30.50
2018-11-23T22:53:40.852Z,30.50
2018-11-23T22:56:07.676Z,31.10
2018-11-23T22:58:34.509Z,30.50
2018-11-23T23:01:01.437Z,30.50
2018-11-23T23:03:28.359Z,30.50
2018-11-23T23:05:55.188Z,30.40
2018-11-23T23:08:22.017Z,30.50
2018-11-23T23:10:48.848Z,30.50
2018-11-23T23:13:15.719Z,30.50
2018-11-23T23:15:43.200Z,30.50
2018-11-23T23:18:09.389Z,30.40
2018-11-23T23:20:36.235Z,30.40
2018-11-23T23:23:03.096Z,30.40
2018-11-23T23:25:29.913Z,30.40
2018-11-23T23:27:56.770Z,30.40
2018-11-23T23:30:23.607Z,31.10
2018-11-23T23:32:50.453Z,30.50
2018-11-23T23:35:17.285Z,30.40
2018-11-23T23:37:44.134Z,30.50
2018-11-23T23:40:10.977Z,30.50
2018-11-23T23:42:37.838Z,30.50
2018-11-23T23:45:04.675Z,30.50
2018-11-23T23:47:31.592Z,30.50
2018-11-23T23:49:58.435Z,30.50
2018-11-23T23:52:25.417Z,30.50
2018-11-23T23:54:52.243Z,31.10
2018-11-23T23:57:19.073Z,30.50
2018-11-23T23:59:45.895Z,30.50
